Time;durP1;ratioP1;P1;durP2;ratioP2;P2;SDS_P1;SDS_P2;PMS_P1;PMS_P2;Temp;Humidity;BMP_temperature;BMP_pressure;BME280_temperature;BME280_humidity;BME280_pressure;Samples;Min_cycle;Max_cycle;Signal;HPM_P1;HPM_P2
2022/10/12 00:01:12;;;;;;;19.48;8.90;;;9.00;99.90;;;;;;5093074;28;20046;-68
2022/10/12 00:03:38;;;;;;;18.15;8.80;;;9.20;99.90;;;;;;5093009;28;20020;-67
2022/10/12 00:06:08;;;;;;;23.63;9.07;;;9.40;99.90;;;;;;5092882;28;20035;-67
2022/10/12 00:08:35;;;;;;;26.45;9.25;;;9.40;99.90;;;;;;5093189;28;20020;-68
2022/10/12 00:11:02;;;;;;;21.23;9.52;;;9.50;99.90;;;;;;5064695;28;20038;-67
2022/10/12 00:13:28;;;;;;;24.42;8.63;;;9.20;99.90;;;;;;5093047;28;20357;-68
2022/10/12 00:15:54;;;;;;;18.35;8.50;;;9.20;99.90;;;;;;5092632;28;20039;-67
2022/10/12 00:18:20;;;;;;;19.33;8.18;;;9.10;99.90;;;;;;5075156;28;20016;-67
2022/10/12 00:20:46;;;;;;;22.90;9.13;;;8.60;99.90;;;;;;5092609;28;20032;-68
2022/10/12 00:23:11;;;;;;;23.88;9.18;;;8.40;99.90;;;;;;5092788;28;20091;-67
2022/10/12 00:25:39;;;;;;;23.27;8.30;;;8.60;99.90;;;;;;5092157;28;20061;-69
2022/10/12 00:28:05;;;;;;;21.02;8.95;;;8.80;99.90;;;;;;5092778;28;20040;-68
2022/10/12 00:30:31;;;;;;;18.90;8.57;;;8.90;99.90;;;;;;5092673;28;20166;-68
2022/10/12 00:32:56;;;;;;;17.40;8.50;;;8.90;99.90;;;;;;5092803;28;20110;-68
2022/10/12 00:35:23;;;;;;;22.80;8.30;;;8.90;99.90;;;;;;5092710;28;20032;-68
2022/10/12 00:37:55;;;;;;;18.35;9.30;;;8.70;99.90;;;;;;5092892;28;20036;-66
2022/10/12 00:40:22;;;;;;;20.58;8.45;;;8.80;99.90;;;;;;5092213;28;20465;-70
2022/10/12 00:42:48;;;;;;;28.45;9.35;;;8.70;99.90;;;;;;5092501;28;20081;-70
2022/10/12 00:45:15;;;;;;;19.40;7.80;;;9.00;99.90;;;;;;5074942;28;20032;-70
2022/10/12 00:47:47;;;;;;;25.75;8.48;;;9.10;99.90;;;;;;5082393;28;20373;-69
2022/10/12 00:50:29;;;;;;;16.08;8.95;;;9.00;99.90;;;;;;5089531;28;20032;-66
2022/10/12 00:53:13;;;;;;;19.17;9.57;;;8.80;99.90;;;;;;5092597;28;20032;-67
2022/10/12 00:55:45;;;;;;;13.68;8.45;;;8.80;99.90;;;;;;5091983;28;20715;-70
2022/10/12 00:58:12;;;;;;;16.75;8.38;;;8.90;99.90;;;;;;5092536;28;20536;-67
2022/10/12 01:00:39;;;;;;;20.48;9.07;;;8.70;99.90;;;;;;5092361;28;20100;-67
2022/10/12 01:03:08;;;;;;;20.00;8.52;;;8.80;99.90;;;;;;5092501;28;20024;-69
2022/10/12 01:05:35;;;;;;;17.02;8.27;;;8.90;99.90;;;;;;5092377;28;20028;-68
2022/10/12 01:08:01;;;;;;;16.05;7.88;;;8.40;99.90;;;;;;5092201;28;20107;-68
2022/10/12 01:10:27;;;;;;;15.52;7.70;;;8.60;99.90;;;;;;5092344;28;20421;-70
2022/10/12 01:12:53;;;;;;;15.68;8.05;;;8.40;99.90;;;;;;5074152;28;20024;-70
2022/10/12 01:15:20;;;;;;;21.63;8.07;;;8.00;99.90;;;;;;5092703;28;20074;-70
2022/10/12 01:18:07;;;;;;;19.70;8.13;;;8.10;99.90;;;;;;5092111;28;20472;-68
2022/10/12 01:21:01;;;;;;;17.70;7.53;;;8.10;99.90;;;;;;5092342;28;20111;-67
2022/10/12 01:23:53;;;;;;;14.73;7.85;;;8.20;99.90;;;;;;5073829;28;20469;-67
2022/10/12 01:26:40;;;;;;;19.17;8.20;;;8.30;99.90;;;;;;5092020;28;20058;-68
2022/10/12 01:29:27;;;;;;;23.23;8.55;;;8.40;99.90;;;;;;5092070;28;20039;-69
2022/10/12 01:32:25;;;;;;;18.17;8.38;;;8.50;99.90;;;;;;5092091;28;20024;-70
2022/10/12 01:35:16;;;;;;;17.33;8.23;;;8.50;99.90;;;;;;5064917;28;20441;-70
2022/10/12 01:37:52;;;;;;;17.52;8.20;;;8.40;99.90;;;;;;5095330;28;20500;-69
2022/10/12 01:40:48;;;;;;;19.15;7.32;;;8.30;99.90;;;;;;5095959;28;20036;-69
2022/10/12 01:43:17;;;;;;;15.63;7.43;;;8.10;99.90;;;;;;5095833;28;20027;-70
2022/10/12 01:45:43;;;;;;;15.10;7.88;;;8.40;99.90;;;;;;5095641;28;20040;-67
2022/10/12 01:48:09;;;;;;;20.42;8.52;;;8.30;99.90;;;;;;5081438;28;20037;-67
2022/10/12 01:50:59;;;;;;;15.95;6.95;;;8.30;99.90;;;;;;5095393;28;20157;-67
2022/10/12 01:53:56;;;;;;;18.75;7.70;;;8.30;99.90;;;;;;5095246;28;20039;-66
2022/10/12 01:56:30;;;;;;;23.13;8.13;;;8.50;99.90;;;;;;5087883;28;20048;-66
2022/10/12 01:59:11;;;;;;;21.75;8.48;;;8.30;99.90;;;;;;5095213;28;20436;-68
2022/10/12 02:02:01;;;;;;;17.77;7.57;;;8.40;99.90;;;;;;5095545;28;20035;-66
2022/10/12 02:04:37;;;;;;;20.98;7.90;;;8.40;99.90;;;;;;5071001;28;20028;-67
2022/10/12 02:07:11;;;;;;;17.98;7.88;;;8.20;99.90;;;;;;5094755;28;20036;-67
2022/10/12 02:09:38;;;;;;;18.88;7.45;;;8.20;99.90;;;;;;5095366;28;20435;-70
2022/10/12 02:12:09;;;;;;;14.88;6.90;;;8.00;99.90;;;;;;5076966;28;20028;-70
2022/10/12 02:14:40;;;;;;;20.08;8.27;;;8.00;99.90;;;;;;5095353;28;20027;-67
2022/10/12 02:17:11;;;;;;;15.55;7.60;;;8.20;99.90;;;;;;5076971;28;20051;-68
2022/10/12 02:19:40;;;;;;;12.63;7.60;;;8.30;99.90;;;;;;5095036;28;20032;-70
2022/10/12 02:22:08;;;;;;;24.23;8.00;;;7.90;99.90;;;;;;5094706;28;20042;-67
2022/10/12 02:24:37;;;;;;;13.30;7.43;;;8.00;99.90;;;;;;5094703;28;20024;-66
2022/10/12 02:27:05;;;;;;;26.50;7.88;;;8.10;99.90;;;;;;5094877;28;20052;-70
2022/10/12 02:29:37;;;;;;;19.02;7.50;;;8.10;99.90;;;;;;5094713;28;20044;-67
2022/10/12 02:32:06;;;;;;;18.02;7.38;;;8.10;99.90;;;;;;5094753;28;20070;-68
2022/10/12 02:35:11;;;;;;;15.68;6.57;;;8.10;99.90;;;;;;5094506;28;20081;-72
2022/10/12 02:38:02;;;;;;;15.57;7.10;;;8.00;99.90;;;;;;5075009;28;20033;-71
2022/10/12 02:40:37;;;;;;;12.88;7.25;;;7.90;99.90;;;;;;5063732;28;20066;-67
2022/10/12 02:43:20;;;;;;;12.80;6.72;;;8.00;99.90;;;;;;5083978;28;20043;-70
2022/10/12 02:45:48;;;;;;;14.90;7.07;;;8.10;99.90;;;;;;5083519;28;20473;-70
2022/10/12 02:48:22;;;;;;;19.63;7.38;;;8.20;99.90;;;;;;5091526;28;20158;-70
2022/10/12 02:50:50;;;;;;;18.60;8.13;;;8.30;99.90;;;;;;5094223;28;20043;-67
2022/10/12 02:53:16;;;;;;;16.73;7.47;;;8.30;99.90;;;;;;5091735;28;20400;-71
2022/10/12 02:55:55;;;;;;;16.35;7.90;;;8.40;99.90;;;;;;5082660;28;20028;-71
2022/10/12 02:58:21;;;;;;;21.48;8.35;;;8.30;99.90;;;;;;5075798;28;20032;-70
2022/10/12 03:00:47;;;;;;;22.40;7.28;;;8.10;99.90;;;;;;5094397;28;20485;-70
2022/10/12 03:03:12;;;;;;;23.98;8.30;;;8.30;99.90;;;;;;5093815;28;20032;-69
2022/10/12 03:05:38;;;;;;;17.52;7.00;;;8.40;99.90;;;;;;5088800;28;20035;-67
2022/10/12 03:08:04;;;;;;;16.98;7.97;;;8.50;99.90;;;;;;5086224;28;20028;-66
2022/10/12 03:10:30;;;;;;;13.43;6.07;;;8.20;99.90;;;;;;5090086;28;20028;-68
2022/10/12 03:12:56;;;;;;;17.80;7.45;;;8.00;99.90;;;;;;5083694;28;20392;-69
2022/10/12 03:15:21;;;;;;;20.85;7.50;;;8.20;99.90;;;;;;5093816;28;20119;-70
2022/10/12 03:17:47;;;;;;;16.77;7.43;;;8.10;99.90;;;;;;5093832;28;20085;-71
2022/10/12 03:20:13;;;;;;;16.13;7.82;;;8.30;99.90;;;;;;5093549;28;20089;-67
2022/10/12 03:22:39;;;;;;;16.77;6.70;;;8.30;99.90;;;;;;5094057;28;20024;-67
2022/10/12 03:25:05;;;;;;;15.23;7.40;;;8.10;99.90;;;;;;5093797;28;20198;-67
2022/10/12 03:27:30;;;;;;;16.60;8.15;;;8.20;99.90;;;;;;5093528;28;20111;-70
2022/10/12 03:29:56;;;;;;;17.67;7.47;;;8.20;99.90;;;;;;5093701;28;20515;-71
2022/10/12 03:32:22;;;;;;;19.80;7.88;;;8.30;99.90;;;;;;5093442;28;20082;-67
2022/10/12 03:34:48;;;;;;;11.25;6.07;;;8.30;99.90;;;;;;5075343;28;20035;-68
2022/10/12 03:37:13;;;;;;;19.35;7.88;;;8.00;99.90;;;;;;5093599;28;20036;-67
2022/10/12 03:39:39;;;;;;;25.30;8.02;;;7.90;99.90;;;;;;5093515;28;20028;-67
2022/10/12 03:42:05;;;;;;;21.05;7.68;;;7.90;99.90;;;;;;5093541;28;20039;-70
2022/10/12 03:44:31;;;;;;;20.42;7.60;;;8.20;99.90;;;;;;5090412;28;20024;-70
2022/10/12 03:46:56;;;;;;;21.38;7.50;;;8.10;99.90;;;;;;5082102;28;20024;-67
2022/10/12 03:49:22;;;;;;;22.05;8.38;;;8.30;99.90;;;;;;5092977;28;20086;-67
2022/10/12 03:51:48;;;;;;;18.48;7.45;;;8.40;99.90;;;;;;5093292;28;20032;-71
2022/10/12 03:54:14;;;;;;;16.80;6.68;;;8.30;99.90;;;;;;5075339;28;20031;-70
2022/10/12 03:56:39;;;;;;;12.02;7.13;;;8.10;99.90;;;;;;5075037;28;20046;-70
2022/10/12 03:59:05;;;;;;;16.92;7.13;;;8.20;99.90;;;;;;5092834;28;20024;-68
2022/10/12 04:01:31;;;;;;;14.95;8.13;;;8.10;99.90;;;;;;5058083;28;20452;-66
2022/10/12 04:03:57;;;;;;;21.73;7.80;;;8.10;99.90;;;;;;5092952;28;20027;-66
2022/10/12 04:06:22;;;;;;;18.38;7.97;;;8.30;99.90;;;;;;5092886;28;20044;-67
2022/10/12 04:08:48;;;;;;;18.35;7.38;;;8.30;99.90;;;;;;5093147;28;20027;-66
2022/10/12 04:11:15;;;;;;;22.85;7.38;;;8.50;99.90;;;;;;5093069;28;20035;-66
2022/10/12 04:13:42;;;;;;;21.15;7.72;;;8.40;99.90;;;;;;5092952;28;20020;-66
2022/10/12 04:16:08;;;;;;;22.75;8.20;;;8.20;99.90;;;;;;5092763;28;20407;-66
2022/10/12 04:18:34;;;;;;;22.27;7.72;;;8.10;99.90;;;;;;5092614;28;20024;-66
2022/10/12 04:21:01;;;;;;;17.90;7.20;;;7.90;99.90;;;;;;5092801;28;20031;-66
2022/10/12 04:23:27;;;;;;;14.68;7.18;;;8.00;99.90;;;;;;5092784;28;20032;-66
2022/10/12 04:25:53;;;;;;;22.05;7.30;;;8.10;99.90;;;;;;5092753;28;20035;-66
2022/10/12 04:28:19;;;;;;;19.50;7.07;;;8.10;99.90;;;;;;5092849;28;20036;-66
2022/10/12 04:30:44;;;;;;;18.92;7.70;;;8.10;99.90;;;;;;5092583;28;20023;-66
2022/10/12 04:33:11;;;;;;;18.15;7.38;;;8.00;99.90;;;;;;5092495;28;20468;-66
2022/10/12 04:35:36;;;;;;;11.65;7.20;;;8.10;99.90;;;;;;5092459;28;20063;-67
2022/10/12 04:38:03;;;;;;;19.95;7.57;;;8.10;99.90;;;;;;5092873;28;20055;-67
2022/10/12 04:40:29;;;;;;;20.42;7.88;;;7.90;99.90;;;;;;5092516;28;20030;-68
2022/10/12 04:42:55;;;;;;;22.25;7.90;;;7.90;99.90;;;;;;5092736;28;20032;-66
2022/10/12 04:45:21;;;;;;;23.52;8.77;;;8.00;99.90;;;;;;5082654;28;20047;-67
2022/10/12 04:47:47;;;;;;;18.92;8.68;;;8.10;99.90;;;;;;5069855;28;20036;-69
2022/10/12 04:50:13;;;;;;;20.27;8.90;;;8.10;99.90;;;;;;5092733;28;20035;-69
2022/10/12 04:52:39;;;;;;;26.10;9.57;;;7.90;99.90;;;;;;5092638;28;20392;-68
2022/10/12 04:55:06;;;;;;;23.92;10.10;;;7.70;99.90;;;;;;5092277;28;20036;-71
2022/10/12 04:57:31;;;;;;;28.48;11.50;;;7.70;99.90;;;;;;5092544;28;20477;-67
2022/10/12 04:59:57;;;;;;;25.30;11.20;;;7.90;99.90;;;;;;5092150;28;20055;-69
2022/10/12 05:02:23;;;;;;;32.17;14.38;;;8.00;99.90;;;;;;5074310;28;20028;-69
2022/10/12 05:04:49;;;;;;;32.53;13.82;;;8.00;99.90;;;;;;5092418;28;20036;-67
2022/10/12 05:07:14;;;;;;;37.83;17.08;;;7.90;99.90;;;;;;5092331;28;20020;-70
2022/10/12 05:09:40;;;;;;;63.83;28.50;;;7.80;99.90;;;;;;5092912;28;20024;-69
2022/10/12 05:12:06;;;;;;;60.08;29.58;;;7.80;99.90;;;;;;5096143;28;20039;-70
2022/10/12 05:14:32;;;;;;;43.20;21.25;;;7.90;99.90;;;;;;5096053;28;20070;-71
2022/10/12 05:16:57;;;;;;;47.00;22.90;;;8.00;99.90;;;;;;5095765;28;20042;-71
2022/10/12 05:19:23;;;;;;;40.15;20.25;;;7.80;99.90;;;;;;5096371;28;20028;-70
2022/10/12 05:21:49;;;;;;;37.72;16.13;;;7.80;99.90;;;;;;5095863;28;20028;-71
2022/10/12 05:24:14;;;;;;;35.63;16.10;;;7.80;99.90;;;;;;5096161;28;20538;-70
2022/10/12 05:26:40;;;;;;;37.03;17.85;;;7.80;99.90;;;;;;5077821;28;20039;-70
2022/10/12 05:29:06;;;;;;;35.65;16.38;;;7.80;99.90;;;;;;5095498;28;20095;-71
2022/10/12 05:31:32;;;;;;;37.05;18.83;;;7.90;99.90;;;;;;5095898;28;20020;-67
2022/10/12 05:33:57;;;;;;;34.75;17.30;;;7.80;99.90;;;;;;5096118;28;20586;-66
2022/10/12 05:36:23;;;;;;;40.05;15.63;;;7.70;99.90;;;;;;5077564;28;20036;-65
2022/10/12 05:38:49;;;;;;;35.38;15.35;;;7.70;99.90;;;;;;5095518;28;20024;-71
2022/10/12 05:41:15;;;;;;;24.55;12.20;;;7.60;99.90;;;;;;5095813;28;20354;-67
2022/10/12 05:43:40;;;;;;;26.23;13.05;;;7.60;99.90;;;;;;5095331;28;20028;-68
2022/10/12 05:46:06;;;;;;;31.10;12.95;;;7.60;99.90;;;;;;5081471;28;20032;-67
2022/10/12 05:48:32;;;;;;;27.75;12.05;;;7.60;99.90;;;;;;5095456;28;20016;-70
2022/10/12 05:50:58;;;;;;;26.52;12.25;;;7.70;99.90;;;;;;5095710;28;20036;-70
2022/10/12 05:53:23;;;;;;;28.30;12.48;;;7.80;99.90;;;;;;5095378;28;20032;-68
2022/10/12 05:55:57;;;;;;;33.35;12.20;;;7.80;99.90;;;;;;5095719;28;20031;-70
2022/10/12 05:58:25;;;;;;;30.90;12.52;;;7.80;99.90;;;;;;5094488;28;20096;-68
2022/10/12 06:00:50;;;;;;;26.00;13.23;;;7.80;99.90;;;;;;5077057;28;20595;-67
2022/10/12 06:03:16;;;;;;;26.27;13.15;;;7.90;99.90;;;;;;5095088;28;20021;-68
2022/10/12 06:05:43;;;;;;;33.10;13.02;;;7.90;99.90;;;;;;5095217;28;20437;-69
2022/10/12 06:08:09;;;;;;;33.00;12.23;;;7.80;99.90;;;;;;5077555;28;20040;-67
2022/10/12 06:10:36;;;;;;;30.40;11.13;;;7.90;99.90;;;;;;5095474;28;20024;-68
2022/10/12 06:13:02;;;;;;;30.58;11.63;;;7.90;99.90;;;;;;5093624;28;20035;-67
2022/10/12 06:15:28;;;;;;;29.40;11.45;;;8.00;99.90;;;;;;5070408;28;20040;-68
2022/10/12 06:17:54;;;;;;;33.17;11.90;;;8.10;99.90;;;;;;5073426;28;20163;-67
2022/10/12 06:20:20;;;;;;;33.42;11.93;;;8.00;99.90;;;;;;5055328;28;20029;-66
2022/10/12 06:22:45;;;;;;;26.52;11.15;;;8.00;99.90;;;;;;5073618;28;20422;-67
2022/10/12 06:25:11;;;;;;;38.08;12.85;;;7.90;99.90;;;;;;5073128;28;20515;-67
2022/10/12 06:27:37;;;;;;;26.02;10.73;;;7.90;99.90;;;;;;5073446;28;20139;-67
2022/10/12 06:30:03;;;;;;;28.02;11.35;;;7.80;99.90;;;;;;5073845;28;20487;-67
2022/10/12 06:32:29;;;;;;;30.60;10.95;;;8.00;99.90;;;;;;5071975;28;20028;-67
2022/10/12 06:34:55;;;;;;;41.25;11.85;;;7.90;99.90;;;;;;5055632;28;20372;-66
2022/10/12 06:37:20;;;;;;;32.00;12.00;;;7.90;99.90;;;;;;5073347;28;20036;-67
2022/10/12 06:39:46;;;;;;;41.45;10.45;;;7.80;99.90;;;;;;5073619;28;20020;-67
2022/10/12 06:42:12;;;;;;;30.63;12.38;;;7.70;99.90;;;;;;5072836;28;20032;-67
2022/10/12 06:44:48;;;;;;;31.30;11.20;;;8.00;99.90;;;;;;5073222;28;20465;-66
2022/10/12 06:47:14;;;;;;;34.22;10.55;;;8.10;99.90;;;;;;5074420;28;20030;-69
2022/10/12 06:49:40;;;;;;;32.92;11.00;;;7.90;99.90;;;;;;5079691;28;20031;-67
2022/10/12 06:52:06;;;;;;;40.90;11.38;;;7.90;99.90;;;;;;5065165;28;20110;-67
2022/10/12 06:54:31;;;;;;;25.75;11.07;;;8.00;99.90;;;;;;5084923;28;20019;-67
2022/10/12 06:56:57;;;;;;;27.13;10.65;;;8.10;99.90;;;;;;5072678;28;20052;-67
2022/10/12 06:59:23;;;;;;;36.40;11.57;;;8.20;99.90;;;;;;5069013;28;20025;-67
2022/10/12 07:01:49;;;;;;;34.35;11.38;;;8.30;99.90;;;;;;5077346;28;20040;-70
2022/10/12 07:04:16;;;;;;;37.15;11.55;;;8.40;99.90;;;;;;5053003;28;20016;-69
2022/10/12 07:06:42;;;;;;;30.95;11.10;;;8.50;99.90;;;;;;5068721;28;20377;-67
2022/10/12 07:09:08;;;;;;;39.58;10.68;;;8.50;99.90;;;;;;5068174;28;20028;-68
2022/10/12 07:11:34;;;;;;;36.95;11.00;;;8.60;99.90;;;;;;5072548;28;20166;-68
2022/10/12 07:14:00;;;;;;;36.25;12.00;;;8.70;99.90;;;;;;5072710;28;20024;-67
2022/10/12 07:16:25;;;;;;;28.73;11.00;;;8.90;99.90;;;;;;5070925;28;20039;-67
2022/10/12 07:18:51;;;;;;;24.15;11.00;;;9.10;99.90;;;;;;5072568;28;20028;-67
2022/10/12 07:21:17;;;;;;;31.88;13.18;;;9.10;99.90;;;;;;5050005;28;20028;-67
2022/10/12 07:23:43;;;;;;;29.40;11.82;;;9.40;99.90;;;;;;5072564;28;20024;-67
2022/10/12 07:26:08;;;;;;;29.50;11.98;;;9.20;99.90;;;;;;5070124;28;20031;-67
2022/10/12 07:28:35;;;;;;;27.65;13.05;;;9.60;99.90;;;;;;5065862;28;20032;-67
2022/10/12 07:31:03;;;;;;;37.20;13.57;;;9.30;99.90;;;;;;5074442;28;20020;-67
2022/10/12 07:33:37;;;;;;;32.78;13.15;;;9.50;99.90;;;;;;5064900;28;20023;-67
2022/10/12 07:36:04;;;;;;;41.17;14.05;;;9.50;99.90;;;;;;5070289;28;20075;-67
2022/10/12 07:38:30;;;;;;;31.73;13.30;;;9.60;99.90;;;;;;5071092;28;20029;-67
2022/10/12 07:41:00;;;;;;;35.60;14.00;;;9.50;99.90;;;;;;5064469;28;20097;-68
2022/10/12 07:43:26;;;;;;;38.42;12.77;;;9.70;99.90;;;;;;5069246;28;20039;-68
2022/10/12 07:45:52;;;;;;;37.58;12.98;;;9.90;99.90;;;;;;5069230;28;20428;-68
2022/10/12 07:48:18;;;;;;;33.55;13.15;;;10.20;99.90;;;;;;5069049;28;20063;-68
2022/10/12 07:50:44;;;;;;;42.10;14.98;;;10.40;99.90;;;;;;5068876;28;20481;-67
2022/10/12 07:53:10;;;;;;;41.22;12.90;;;10.50;99.90;;;;;;5072131;28;20078;-67
2022/10/12 07:55:35;;;;;;;34.13;13.55;;;10.40;99.90;;;;;;5071593;28;20094;-67
2022/10/12 07:58:02;;;;;;;45.03;15.38;;;10.80;99.90;;;;;;5071777;28;20040;-68
2022/10/12 08:00:29;;;;;;;38.10;14.45;;;10.90;99.90;;;;;;5071979;28;20032;-66
2022/10/12 08:02:55;;;;;;;34.78;15.30;;;10.40;99.90;;;;;;5049771;28;20024;-67
2022/10/12 08:05:22;;;;;;;34.97;13.32;;;10.30;99.90;;;;;;5071712;28;20030;-67
2022/10/12 08:07:50;;;;;;;32.63;12.95;;;10.20;99.90;;;;;;5071940;28;20097;-67
2022/10/12 08:10:16;;;;;;;49.40;13.98;;;10.50;99.90;;;;;;5068997;28;20029;-66
2022/10/12 08:12:44;;;;;;;33.25;13.65;;;10.30;99.90;;;;;;5074210;28;20020;-68
2022/10/12 08:15:10;;;;;;;30.95;12.65;;;10.50;99.90;;;;;;5071452;28;20098;-66
2022/10/12 08:17:36;;;;;;;35.75;13.02;;;10.00;99.90;;;;;;5053623;28;20607;-71
2022/10/12 08:20:03;;;;;;;35.50;12.05;;;9.80;99.90;;;;;;5071671;28;20123;-71
2022/10/12 08:22:29;;;;;;;29.13;11.68;;;9.80;99.90;;;;;;5070383;28;20503;-68
2022/10/12 08:24:54;;;;;;;31.85;12.52;;;9.80;99.90;;;;;;5069830;28;20033;-70
2022/10/12 08:27:20;;;;;;;35.85;12.52;;;10.00;99.90;;;;;;5071438;28;20104;-68
2022/10/12 08:29:46;;;;;;;27.10;12.23;;;10.20;99.90;;;;;;5071634;28;20021;-68
2022/10/12 08:32:12;;;;;;;30.90;13.48;;;10.40;99.90;;;;;;5074307;28;20081;-69
2022/10/12 08:34:37;;;;;;;25.88;11.85;;;10.70;99.90;;;;;;5073209;28;20028;-69
2022/10/12 08:37:04;;;;;;;28.80;10.88;;;10.60;99.90;;;;;;5071465;28;20076;-69
2022/10/12 08:39:29;;;;;;;32.63;12.60;;;10.60;99.90;;;;;;5070309;28;20488;-69
2022/10/12 08:42:43;;;;;;;33.13;12.55;;;10.60;99.90;;;;;;5068565;28;20041;-66
2022/10/12 08:45:21;;;;;;;35.58;12.63;;;11.00;99.90;;;;;;5031552;28;20044;-68
2022/10/12 08:48:13;;;;;;;25.63;11.38;;;11.20;99.90;;;;;;5081342;28;20070;-69
2022/10/12 08:50:45;;;;;;;26.02;11.82;;;10.90;99.90;;;;;;5071513;28;20506;-69
2022/10/12 08:53:25;;;;;;;32.08;12.02;;;11.00;99.90;;;;;;5072913;28;20039;-66
2022/10/12 08:55:52;;;;;;;32.20;12.45;;;11.10;99.90;;;;;;5083303;28;20044;-69
2022/10/12 08:58:29;;;;;;;32.80;11.90;;;10.90;99.90;;;;;;5081957;28;20035;-69
2022/10/12 09:01:06;;;;;;;38.20;11.80;;;11.00;99.90;;;;;;5054814;28;20448;-66
2022/10/12 09:04:07;;;;;;;35.83;12.73;;;11.20;99.90;;;;;;5090040;28;20027;-67
2022/10/12 09:06:43;;;;;;;31.70;12.10;;;11.60;99.90;;;;;;5091591;28;20028;-66
2022/10/12 09:09:25;;;;;;;31.38;11.25;;;11.70;99.90;;;;;;5079043;28;20472;-66
2022/10/12 09:12:18;;;;;;;33.28;10.90;;;11.90;99.90;;;;;;5082230;28;20040;-67
2022/10/12 09:14:45;;;;;;;31.83;11.43;;;12.40;99.90;;;;;;5086407;28;20044;-66
2022/10/12 09:17:29;;;;;;;29.92;11.70;;;13.00;99.90;;;;;;5094067;28;20086;-66
2022/10/12 09:20:30;;;;;;;24.55;11.88;;;12.90;99.90;;;;;;5082664;28;20028;-66
2022/10/12 09:23:00;;;;;;;30.27;11.55;;;13.00;99.90;;;;;;5093469;28;20111;-66
2022/10/12 09:25:27;;;;;;;32.45;11.73;;;13.10;99.90;;;;;;5094655;28;20032;-66
2022/10/12 09:28:00;;;;;;;32.08;11.57;;;13.50;99.90;;;;;;5095972;28;20081;-66
2022/10/12 09:30:28;;;;;;;30.90;11.18;;;13.70;99.90;;;;;;5094625;28;20087;-66
2022/10/12 09:33:19;;;;;;;33.05;12.65;;;13.70;99.90;;;;;;5096006;28;20499;-66
2022/10/12 09:35:46;;;;;;;26.87;11.13;;;13.60;99.90;;;;;;5095640;28;20036;-67
2022/10/12 09:38:12;;;;;;;26.80;10.65;;;13.60;99.90;;;;;;5096034;28;20031;-67
2022/10/12 09:40:38;;;;;;;29.38;11.25;;;13.50;99.90;;;;;;5095740;28;20059;-66
2022/10/12 09:43:05;;;;;;;23.35;10.55;;;13.60;99.90;;;;;;5095768;28;20020;-67
2022/10/12 09:45:33;;;;;;;27.67;11.25;;;14.10;99.90;;;;;;5084338;28;20032;-66
2022/10/12 09:48:12;;;;;;;31.88;11.18;;;14.20;99.90;;;;;;5074890;28;20031;-67
2022/10/12 09:50:46;;;;;;;29.65;11.55;;;14.40;99.90;;;;;;5077100;28;20433;-67
2022/10/12 09:53:31;;;;;;;31.45;9.52;;;14.20;99.90;;;;;;5095406;28;20043;-66
2022/10/12 09:56:07;;;;;;;26.77;9.88;;;13.70;99.90;;;;;;5094876;28;20089;-66
2022/10/12 09:59:00;;;;;;;23.77;9.18;;;14.20;99.90;;;;;;5067595;28;20540;-66
2022/10/12 10:01:28;;;;;;;26.90;9.93;;;14.60;99.90;;;;;;5073578;28;20400;-67
2022/10/12 10:04:09;;;;;;;23.67;8.75;;;14.30;99.90;;;;;;5077018;28;20384;-66
2022/10/12 10:06:38;;;;;;;30.95;9.55;;;14.40;99.90;;;;;;5095057;28;20114;-66
2022/10/12 10:09:04;;;;;;;19.00;8.35;;;14.40;99.90;;;;;;5077163;28;20031;-66
2022/10/12 10:11:30;;;;;;;28.95;9.80;;;14.60;99.90;;;;;;5094821;28;20103;-67
2022/10/12 10:13:59;;;;;;;27.55;9.23;;;14.90;99.90;;;;;;5094929;28;20111;-66
2022/10/12 10:16:26;;;;;;;24.52;9.15;;;15.70;99.90;;;;;;5077084;28;20481;-66
2022/10/12 10:18:52;;;;;;;29.15;9.75;;;15.50;99.90;;;;;;5094492;28;20537;-66
2022/10/12 10:21:29;;;;;;;21.67;9.10;;;15.40;99.90;;;;;;5095048;28;20027;-66
2022/10/12 10:24:40;;;;;;;27.50;11.05;;;15.50;99.90;;;;;;5076696;28;20036;-67
2022/10/12 10:27:06;;;;;;;20.60;9.02;;;15.50;99.90;;;;;;5012671;28;20042;-66
2022/10/12 10:29:40;;;;;;;27.42;8.98;;;15.50;99.90;;;;;;5077919;28;20032;-66
2022/10/12 10:32:27;;;;;;;30.33;9.13;;;15.00;99.90;;;;;;5076361;28;20424;-66
2022/10/12 10:35:02;;;;;;;22.88;8.48;;;15.00;99.90;;;;;;5094090;28;20050;-66
2022/10/12 10:37:29;;;;;;;23.63;8.35;;;15.50;99.90;;;;;;5094475;28;20046;-66
2022/10/12 10:39:56;;;;;;;30.55;9.45;;;15.40;99.90;;;;;;5094607;28;20050;-66
2022/10/12 10:42:30;;;;;;;22.25;7.88;;;15.30;99.90;;;;;;5094419;28;20465;-67
2022/10/12 10:45:03;;;;;;;17.58;7.47;;;15.10;99.90;;;;;;5088205;28;20024;-67
2022/10/12 10:47:32;;;;;;;19.77;6.07;;;15.30;99.90;;;;;;5069973;28;20039;-69
2022/10/12 10:50:01;;;;;;;19.05;6.22;;;15.20;99.90;;;;;;5055083;28;20016;-67
2022/10/12 10:52:35;;;;;;;17.77;5.95;;;15.60;99.90;;;;;;5073925;28;20408;-67
2022/10/12 10:55:10;;;;;;;22.63;6.25;;;15.70;99.90;;;;;;5073576;28;20036;-67
2022/10/12 10:57:45;;;;;;;17.58;6.53;;;16.00;99.90;;;;;;5073900;28;20040;-67
2022/10/12 11:00:15;;;;;;;17.63;5.93;;;16.40;99.90;;;;;;5073646;28;20488;-66
2022/10/12 11:02:51;;;;;;;20.92;6.15;;;16.50;99.90;;;;;;5073461;28;20044;-66
2022/10/12 11:05:20;;;;;;;13.65;6.20;;;16.60;99.90;;;;;;5055791;28;20445;-66
2022/10/12 11:08:16;;;;;;;18.40;6.90;;;16.50;99.90;;;;;;5054569;28;20534;-66
2022/10/12 11:10:52;;;;;;;31.02;6.65;;;16.50;99.90;;;;;;5066613;28;20045;-66
2022/10/12 11:13:32;;;;;;;19.90;6.38;;;17.20;99.90;;;;;;5073584;28;20028;-67
2022/10/12 11:16:07;;;;;;;18.25;6.22;;;17.50;99.90;;;;;;5073395;28;20040;-67
2022/10/12 11:18:44;;;;;;;25.67;6.60;;;17.90;99.90;;;;;;5073158;28;20492;-67
2022/10/12 11:21:20;;;;;;;17.85;5.72;;;18.30;99.90;;;;;;5055304;28;20024;-67
2022/10/12 11:24:16;;;;;;;14.70;5.80;;;18.40;99.90;;;;;;5073322;28;20028;-67
2022/10/12 11:27:05;;;;;;;17.05;6.38;;;18.60;99.90;;;;;;5067463;28;20037;-67
2022/10/12 11:29:32;;;;;;;25.67;5.82;;;18.40;99.90;;;;;;5069729;28;20032;-67
2022/10/12 11:32:06;;;;;;;16.70;6.22;;;19.90;99.50;;;;;;5074782;28;20024;-66
2022/10/12 11:34:50;;;;;;;16.50;6.78;;;19.50;98.80;;;;;;5071418;28;20025;-67
2022/10/12 11:37:21;;;;;;;13.43;6.10;;;19.50;99.10;;;;;;5055279;28;20069;-67
2022/10/12 11:39:51;;;;;;;19.88;7.07;;;19.50;99.10;;;;;;5055130;28;20037;-66
2022/10/12 11:42:41;;;;;;;25.05;7.38;;;18.70;99.90;;;;;;5072949;28;20507;-67
2022/10/12 11:45:29;;;;;;;13.73;5.75;;;19.00;99.90;;;;;;5072920;28;20024;-67
2022/10/12 11:48:10;;;;;;;19.63;7.20;;;19.10;99.60;;;;;;5089829;28;20039;-67
2022/10/12 11:50:43;;;;;;;12.00;6.50;;;18.40;99.90;;;;;;5093352;28;20089;-68
2022/10/12 11:53:50;;;;;;;18.27;6.35;;;18.30;99.90;;;;;;5092982;28;20066;-69
2022/10/12 11:56:41;;;;;;;14.90;5.60;;;18.10;99.90;;;;;;5074328;28;20048;-69
2022/10/12 11:59:35;;;;;;;14.95;5.82;;;17.90;99.90;;;;;;5086206;28;20453;-68
2022/10/12 12:02:10;;;;;;;20.83;6.30;;;17.40;99.90;;;;;;5064387;28;20098;-70
2022/10/12 12:04:40;;;;;;;20.35;6.03;;;17.10;99.90;;;;;;5072683;28;20028;-67
2022/10/12 12:07:40;;;;;;;17.40;5.68;;;16.90;99.90;;;;;;5072755;28;20536;-68
2022/10/12 12:10:33;;;;;;;14.60;5.53;;;16.80;99.90;;;;;;5063886;28;20562;-69
2022/10/12 12:13:11;;;;;;;12.85;5.82;;;16.60;99.90;;;;;;5021316;28;20496;-67
2022/10/12 12:16:12;;;;;;;19.50;5.20;;;16.30;99.90;;;;;;5057502;28;20025;-67
2022/10/12 12:19:33;;;;;;;18.48;5.10;;;16.10;99.90;;;;;;5069671;28;20107;-68
2022/10/12 12:22:15;;;;;;;12.77;4.90;;;16.70;99.90;;;;;;4990833;28;20105;-66
2022/10/12 12:25:09;;;;;;;17.48;5.10;;;16.70;99.90;;;;;;4991022;28;20117;-67
2022/10/12 12:27:56;;;;;;;14.30;4.82;;;16.50;99.90;;;;;;5034960;28;20500;-67
2022/10/12 12:30:29;;;;;;;14.85;3.95;;;16.70;99.90;;;;;;5072090;28;20037;-67
2022/10/12 12:33:16;;;;;;;17.15;4.65;;;16.50;99.90;;;;;;5061650;28;20031;-67
2022/10/12 12:36:11;;;;;;;12.32;4.10;;;17.70;99.90;;;;;;5069894;28;20481;-67
2022/10/12 12:38:45;;;;;;;12.13;3.58;;;19.30;98.70;;;;;;5069849;28;20048;-67
2022/10/12 12:41:16;;;;;;;12.63;3.40;;;18.60;98.40;;;;;;5072296;28;20017;-67
2022/10/12 12:43:48;;;;;;;16.15;4.30;;;18.50;98.80;;;;;;5071421;28;20119;-70
2022/10/12 12:46:14;;;;;;;14.45;3.53;;;18.90;98.60;;;;;;5062389;28;20033;-67
2022/10/12 12:48:54;;;;;;;10.68;3.78;;;19.20;98.30;;;;;;5072265;28;20028;-67
2022/10/12 12:51:25;;;;;;;14.63;4.80;;;19.40;97.70;;;;;;5059604;28;20031;-67
2022/10/12 12:53:57;;;;;;;8.30;3.58;;;20.10;97.90;;;;;;5064846;28;20039;-67
2022/10/12 12:56:29;;;;;;;10.55;3.80;;;19.90;97.50;;;;;;5071876;28;20086;-68
2022/10/12 12:59:03;;;;;;;9.45;3.67;;;20.10;97.60;;;;;;5071908;28;20032;-67
2022/10/12 13:01:50;;;;;;;13.45;3.38;;;19.80;97.40;;;;;;5072057;28;20056;-68